sensor_id;sensor_type;location;lat;lon;timestamp;P1;durP1;ratioP1;P2;durP2;ratioP2
47575;SDS011;33304;52.456;13.328;2023-08-24T00:01:42;0.50;;;0.50;;
47575;SDS011;33304;52.456;13.328;2023-08-24T00:04:09;0.50;;;0.50;;
47575;SDS011;33304;52.456;13.328;2023-08-24T00:06:36;0.63;;;0.63;;
47575;SDS011;33304;52.456;13.328;2023-08-24T00:09:03;0.57;;;0.57;;
47575;SDS011;33304;52.456;13.328;2023-08-24T00:11:31;0.50;;;0.50;;
47575;SDS011;33304;52.456;13.328;2023-08-24T00:13:58;0.67;;;0.67;;
47575;SDS011;33304;52.456;13.328;2023-08-24T00:16:26;0.53;;;0.53;;
47575;SDS011;33304;52.456;13.328;2023-08-24T00:18:54;0.60;;;0.60;;
47575;SDS011;33304;52.456;13.328;2023-08-24T00:21:21;0.57;;;0.57;;
47575;SDS011;33304;52.456;13.328;2023-08-24T00:23:49;0.63;;;0.63;;
47575;SDS011;33304;52.456;13.328;2023-08-24T00:26:16;0.50;;;0.50;;
47575;SDS011;33304;52.456;13.328;2023-08-24T00:28:44;0.60;;;0.60;;
47575;SDS011;33304;52.456;13.328;2023-08-24T00:31:11;0.63;;;0.63;;
47575;SDS011;33304;52.456;13.328;2023-08-24T00:33:39;0.60;;;0.60;;
47575;SDS011;33304;52.456;13.328;2023-08-24T00:36:07;0.60;;;0.60;;
47575;SDS011;33304;52.456;13.328;2023-08-24T00:38:34;0.60;;;0.60;;
47575;SDS011;33304;52.456;13.328;2023-08-24T00:41:02;0.70;;;0.70;;
47575;SDS011;33304;52.456;13.328;2023-08-24T00:43:29;0.60;;;0.60;;
47575;SDS011;33304;52.456;13.328;2023-08-24T00:45:57;0.53;;;0.53;;
47575;SDS011;33304;52.456;13.328;2023-08-24T00:48:27;0.60;;;0.60;;
47575;SDS011;33304;52.456;13.328;2023-08-24T00:50:57;0.53;;;0.53;;
47575;SDS011;33304;52.456;13.328;2023-08-24T00:53:26;0.60;;;0.60;;
47575;SDS011;33304;52.456;13.328;2023-08-24T00:55:56;0.90;;;0.90;;
47575;SDS011;33304;52.456;13.328;2023-08-24T00:58:24;0.60;;;0.60;;
47575;SDS011;33304;52.456;13.328;2023-08-24T01:00:54;0.60;;;0.60;;
47575;SDS011;33304;52.456;13.328;2023-08-24T01:03:23;0.60;;;0.60;;
47575;SDS011;33304;52.456;13.328;2023-08-24T01:05:50;0.60;;;0.60;;
47575;SDS011;33304;52.456;13.328;2023-08-24T01:08:19;0.50;;;0.50;;
47575;SDS011;33304;52.456;13.328;2023-08-24T01:10:48;0.60;;;0.60;;
47575;SDS011;33304;52.456;13.328;2023-08-24T01:13:24;0.77;;;0.77;;
47575;SDS011;33304;52.456;13.328;2023-08-24T01:15:58;0.70;;;0.70;;
47575;SDS011;33304;52.456;13.328;2023-08-24T01:18:30;0.60;;;0.60;;
47575;SDS011;33304;52.456;13.328;2023-08-24T01:21:01;0.70;;;0.70;;
47575;SDS011;33304;52.456;13.328;2023-08-24T01:23:34;0.73;;;0.73;;
47575;SDS011;33304;52.456;13.328;2023-08-24T01:26:13;0.90;;;0.90;;
47575;SDS011;33304;52.456;13.328;2023-08-24T01:28:43;0.90;;;0.90;;
47575;SDS011;33304;52.456;13.328;2023-08-24T01:31:12;0.70;;;0.70;;
47575;SDS011;33304;52.456;13.328;2023-08-24T01:33:41;0.97;;;0.97;;
47575;SDS011;33304;52.456;13.328;2023-08-24T01:36:08;0.97;;;0.97;;
47575;SDS011;33304;52.456;13.328;2023-08-24T01:38:37;1.13;;;1.13;;
47575;SDS011;33304;52.456;13.328;2023-08-24T01:41:09;1.27;;;1.27;;
47575;SDS011;33304;52.456;13.328;2023-08-24T01:43:43;1.50;;;1.40;;
47575;SDS011;33304;52.456;13.328;2023-08-24T01:46:14;1.33;;;1.33;;
47575;SDS011;33304;52.456;13.328;2023-08-24T01:48:43;1.33;;;1.33;;
47575;SDS011;33304;52.456;13.328;2023-08-24T01:51:10;1.40;;;1.40;;
47575;SDS011;33304;52.456;13.328;2023-08-24T01:53:39;1.17;;;1.17;;
47575;SDS011;33304;52.456;13.328;2023-08-24T01:56:10;1.30;;;1.30;;
47575;SDS011;33304;52.456;13.328;2023-08-24T01:58:39;1.43;;;1.33;;
47575;SDS011;33304;52.456;13.328;2023-08-24T02:01:06;1.57;;;1.43;;
47575;SDS011;33304;52.456;13.328;2023-08-24T02:03:35;1.47;;;1.47;;
47575;SDS011;33304;52.456;13.328;2023-08-24T02:06:04;1.30;;;1.30;;
47575;SDS011;33304;52.456;13.328;2023-08-24T02:14:08;1.03;;;1.03;;
47575;SDS011;33304;52.456;13.328;2023-08-24T02:16:37;1.10;;;1.10;;
47575;SDS011;33304;52.456;13.328;2023-08-24T02:19:05;1.00;;;1.00;;
47575;SDS011;33304;52.456;13.328;2023-08-24T02:21:34;1.13;;;1.10;;
47575;SDS011;33304;52.456;13.328;2023-08-24T02:24:02;0.97;;;0.97;;
47575;SDS011;33304;52.456;13.328;2023-08-24T02:26:30;0.90;;;0.90;;
47575;SDS011;33304;52.456;13.328;2023-08-24T02:28:59;0.83;;;0.83;;
47575;SDS011;33304;52.456;13.328;2023-08-24T02:31:27;1.00;;;1.00;;
47575;SDS011;33304;52.456;13.328;2023-08-24T02:33:55;1.40;;;1.30;;
47575;SDS011;33304;52.456;13.328;2023-08-24T02:36:22;0.90;;;0.90;;
47575;SDS011;33304;52.456;13.328;2023-08-24T02:38:49;1.03;;;1.03;;
47575;SDS011;33304;52.456;13.328;2023-08-24T02:41:17;1.00;;;1.00;;
47575;SDS011;33304;52.456;13.328;2023-08-24T02:43:44;0.97;;;0.90;;
47575;SDS011;33304;52.456;13.328;2023-08-24T02:46:11;0.80;;;0.80;;
47575;SDS011;33304;52.456;13.328;2023-08-24T02:48:40;0.60;;;0.60;;
47575;SDS011;33304;52.456;13.328;2023-08-24T02:51:07;0.83;;;0.83;;
47575;SDS011;33304;52.456;13.328;2023-08-24T02:53:36;1.00;;;1.00;;
47575;SDS011;33304;52.456;13.328;2023-08-24T02:56:03;0.80;;;0.80;;
47575;SDS011;33304;52.456;13.328;2023-08-24T02:58:30;0.77;;;0.77;;
47575;SDS011;33304;52.456;13.328;2023-08-24T03:00:58;0.70;;;0.70;;
47575;SDS011;33304;52.456;13.328;2023-08-24T03:03:25;0.70;;;0.70;;
47575;SDS011;33304;52.456;13.328;2023-08-24T03:05:56;0.50;;;0.50;;
47575;SDS011;33304;52.456;13.328;2023-08-24T03:08:26;0.80;;;0.80;;
47575;SDS011;33304;52.456;13.328;2023-08-24T03:10:54;0.90;;;0.90;;
47575;SDS011;33304;52.456;13.328;2023-08-24T03:13:21;0.60;;;0.60;;
47575;SDS011;33304;52.456;13.328;2023-08-24T03:15:48;0.70;;;0.70;;
47575;SDS011;33304;52.456;13.328;2023-08-24T03:18:16;0.80;;;0.80;;
47575;SDS011;33304;52.456;13.328;2023-08-24T03:20:43;0.63;;;0.63;;
47575;SDS011;33304;52.456;13.328;2023-08-24T03:23:14;0.60;;;0.60;;
47575;SDS011;33304;52.456;13.328;2023-08-24T03:25:42;0.70;;;0.70;;
47575;SDS011;33304;52.456;13.328;2023-08-24T03:28:09;0.60;;;0.60;;
47575;SDS011;33304;52.456;13.328;2023-08-24T03:30:38;0.70;;;0.70;;
47575;SDS011;33304;52.456;13.328;2023-08-24T03:33:07;0.87;;;0.87;;
47575;SDS011;33304;52.456;13.328;2023-08-24T03:35:34;0.70;;;0.70;;
47575;SDS011;33304;52.456;13.328;2023-08-24T03:38:02;0.60;;;0.60;;
47575;SDS011;33304;52.456;13.328;2023-08-24T03:40:31;0.57;;;0.57;;
47575;SDS011;33304;52.456;13.328;2023-08-24T03:42:58;0.70;;;0.70;;
47575;SDS011;33304;52.456;13.328;2023-08-24T03:45:25;0.80;;;0.80;;
47575;SDS011;33304;52.456;13.328;2023-08-24T03:47:52;0.80;;;0.80;;
47575;SDS011;33304;52.456;13.328;2023-08-24T03:50:19;0.60;;;0.60;;
47575;SDS011;33304;52.456;13.328;2023-08-24T03:52:47;0.83;;;0.83;;
47575;SDS011;33304;52.456;13.328;2023-08-24T03:55:16;0.63;;;0.63;;
47575;SDS011;33304;52.456;13.328;2023-08-24T03:57:45;0.80;;;0.80;;
47575;SDS011;33304;52.456;13.328;2023-08-24T04:00:12;0.60;;;0.60;;
47575;SDS011;33304;52.456;13.328;2023-08-24T04:02:40;0.50;;;0.50;;
47575;SDS011;33304;52.456;13.328;2023-08-24T04:05:10;0.50;;;0.50;;
47575;SDS011;33304;52.456;13.328;2023-08-24T04:07:37;0.60;;;0.60;;
47575;SDS011;33304;52.456;13.328;2023-08-24T04:10:06;0.70;;;0.70;;
47575;SDS011;33304;52.456;13.328;2023-08-24T04:12:34;0.60;;;0.60;;
47575;SDS011;33304;52.456;13.328;2023-08-24T04:15:03;0.60;;;0.60;;
47575;SDS011;33304;52.456;13.328;2023-08-24T04:17:31;0.80;;;0.80;;
47575;SDS011;33304;52.456;13.328;2023-08-24T04:19:58;0.60;;;0.60;;
47575;SDS011;33304;52.456;13.328;2023-08-24T04:22:26;0.70;;;0.70;;
47575;SDS011;33304;52.456;13.328;2023-08-24T04:24:53;0.60;;;0.60;;
47575;SDS011;33304;52.456;13.328;2023-08-24T04:27:20;0.53;;;0.53;;
47575;SDS011;33304;52.456;13.328;2023-08-24T04:29:47;0.70;;;0.70;;
47575;SDS011;33304;52.456;13.328;2023-08-24T04:32:16;1.13;;;0.60;;
47575;SDS011;33304;52.456;13.328;2023-08-24T04:34:43;0.73;;;0.73;;
47575;SDS011;33304;52.456;13.328;2023-08-24T04:37:10;0.50;;;0.50;;
47575;SDS011;33304;52.456;13.328;2023-08-24T04:39:37;0.80;;;0.80;;
47575;SDS011;33304;52.456;13.328;2023-08-24T04:42:05;0.60;;;0.60;;
47575;SDS011;33304;52.456;13.328;2023-08-24T04:44:32;0.57;;;0.57;;
47575;SDS011;33304;52.456;13.328;2023-08-24T04:47:00;0.77;;;0.77;;
47575;SDS011;33304;52.456;13.328;2023-08-24T04:49:29;0.60;;;0.60;;
47575;SDS011;33304;52.456;13.328;2023-08-24T04:51:57;0.50;;;0.50;;
47575;SDS011;33304;52.456;13.328;2023-08-24T04:54:24;0.57;;;0.57;;
47575;SDS011;33304;52.456;13.328;2023-08-24T04:56:51;0.80;;;0.80;;
47575;SDS011;33304;52.456;13.328;2023-08-24T04:59:18;0.60;;;0.60;;
47575;SDS011;33304;52.456;13.328;2023-08-24T05:01:45;0.77;;;0.77;;
47575;SDS011;33304;52.456;13.328;2023-08-24T05:04:12;0.53;;;0.53;;
47575;SDS011;33304;52.456;13.328;2023-08-24T05:06:40;0.60;;;0.60;;
47575;SDS011;33304;52.456;13.328;2023-08-24T05:09:07;0.60;;;0.60;;
47575;SDS011;33304;52.456;13.328;2023-08-24T05:11:34;0.83;;;0.83;;
47575;SDS011;33304;52.456;13.328;2023-08-24T05:14:01;0.97;;;0.97;;
47575;SDS011;33304;52.456;13.328;2023-08-24T05:16:29;0.70;;;0.70;;
47575;SDS011;33304;52.456;13.328;2023-08-24T05:18:56;0.70;;;0.70;;
47575;SDS011;33304;52.456;13.328;2023-08-24T05:21:23;0.70;;;0.70;;
47575;SDS011;33304;52.456;13.328;2023-08-24T05:23:51;0.50;;;0.50;;
47575;SDS011;33304;52.456;13.328;2023-08-24T05:26:18;0.70;;;0.70;;
47575;SDS011;33304;52.456;13.328;2023-08-24T05:28:48;0.80;;;0.80;;
47575;SDS011;33304;52.456;13.328;2023-08-24T05:31:15;0.70;;;0.70;;
47575;SDS011;33304;52.456;13.328;2023-08-24T05:33:42;0.73;;;0.73;;
47575;SDS011;33304;52.456;13.328;2023-08-24T05:36:09;0.73;;;0.73;;
47575;SDS011;33304;52.456;13.328;2023-08-24T05:38:36;0.70;;;0.70;;
47575;SDS011;33304;52.456;13.328;2023-08-24T05:41:04;0.67;;;0.67;;
47575;SDS011;33304;52.456;13.328;2023-08-24T05:43:31;0.57;;;0.57;;
47575;SDS011;33304;52.456;13.328;2023-08-24T05:45:58;0.60;;;0.60;;
47575;SDS011;33304;52.456;13.328;2023-08-24T05:48:26;0.80;;;0.80;;
47575;SDS011;33304;52.456;13.328;2023-08-24T05:50:54;0.80;;;0.80;;
47575;SDS011;33304;52.456;13.328;2023-08-24T05:53:21;0.50;;;0.50;;
47575;SDS011;33304;52.456;13.328;2023-08-24T05:55:48;0.60;;;0.60;;
47575;SDS011;33304;52.456;13.328;2023-08-24T05:58:17;0.50;;;0.50;;
47575;SDS011;33304;52.456;13.328;2023-08-24T06:00:44;0.70;;;0.70;;
47575;SDS011;33304;52.456;13.328;2023-08-24T06:03:11;0.80;;;0.80;;
47575;SDS011;33304;52.456;13.328;2023-08-24T06:05:38;0.70;;;0.70;;
47575;SDS011;33304;52.456;13.328;2023-08-24T06:08:05;0.77;;;0.77;;
47575;SDS011;33304;52.456;13.328;2023-08-24T06:10:32;1.17;;;1.17;;
47575;SDS011;33304;52.456;13.328;2023-08-24T06:12:59;0.90;;;0.90;;
47575;SDS011;33304;52.456;13.328;2023-08-24T06:15:29;0.83;;;0.83;;
47575;SDS011;33304;52.456;13.328;2023-08-24T06:17:56;0.83;;;0.83;;
47575;SDS011;33304;52.456;13.328;2023-08-24T06:20:25;0.67;;;0.67;;
47575;SDS011;33304;52.456;13.328;2023-08-24T06:22:52;0.77;;;0.77;;
47575;SDS011;33304;52.456;13.328;2023-08-24T06:25:19;0.60;;;0.60;;
47575;SDS011;33304;52.456;13.328;2023-08-24T06:27:46;0.63;;;0.63;;
47575;SDS011;33304;52.456;13.328;2023-08-24T06:30:13;0.60;;;0.60;;
47575;SDS011;33304;52.456;13.328;2023-08-24T06:32:41;0.57;;;0.57;;
47575;SDS011;33304;52.456;13.328;2023-08-24T06:35:08;0.67;;;0.67;;
47575;SDS011;33304;52.456;13.328;2023-08-24T06:37:35;0.60;;;0.60;;
47575;SDS011;33304;52.456;13.328;2023-08-24T06:40:02;0.70;;;0.70;;
47575;SDS011;33304;52.456;13.328;2023-08-24T06:42:31;0.60;;;0.60;;
47575;SDS011;33304;52.456;13.328;2023-08-24T06:44:58;0.70;;;0.70;;
47575;SDS011;33304;52.456;13.328;2023-08-24T06:47:25;0.60;;;0.60;;
47575;SDS011;33304;52.456;13.328;2023-08-24T06:49:53;0.87;;;0.87;;
47575;SDS011;33304;52.456;13.328;2023-08-24T06:52:20;0.80;;;0.80;;
47575;SDS011;33304;52.456;13.328;2023-08-24T06:54:47;0.50;;;0.50;;
47575;SDS011;33304;52.456;13.328;2023-08-24T06:57:18;0.90;;;0.90;;
47575;SDS011;33304;52.456;13.328;2023-08-24T06:59:46;0.63;;;0.63;;
47575;SDS011;33304;52.456;13.328;2023-08-24T07:02:13;0.60;;;0.60;;
47575;SDS011;33304;52.456;13.328;2023-08-24T07:04:40;0.73;;;0.73;;
47575;SDS011;33304;52.456;13.328;2023-08-24T07:07:08;0.70;;;0.70;;
47575;SDS011;33304;52.456;13.328;2023-08-24T07:09:36;0.80;;;0.80;;
47575;SDS011;33304;52.456;13.328;2023-08-24T07:12:03;0.70;;;0.70;;
47575;SDS011;33304;52.456;13.328;2023-08-24T07:14:32;0.70;;;0.70;;
47575;SDS011;33304;52.456;13.328;2023-08-24T07:17:00;0.90;;;0.90;;
47575;SDS011;33304;52.456;13.328;2023-08-24T07:19:27;0.73;;;0.73;;
47575;SDS011;33304;52.456;13.328;2023-08-24T07:21:54;0.50;;;0.50;;
47575;SDS011;33304;52.456;13.328;2023-08-24T07:24:22;0.60;;;0.60;;
47575;SDS011;33304;52.456;13.328;2023-08-24T07:26:51;0.50;;;0.50;;
47575;SDS011;33304;52.456;13.328;2023-08-24T07:29:18;0.50;;;0.50;;
47575;SDS011;33304;52.456;13.328;2023-08-24T07:31:46;0.50;;;0.50;;
47575;SDS011;33304;52.456;13.328;2023-08-24T07:34:13;0.83;;;0.80;;
47575;SDS011;33304;52.456;13.328;2023-08-24T07:36:40;0.50;;;0.50;;
47575;SDS011;33304;52.456;13.328;2023-08-24T07:39:08;0.50;;;0.50;;
47575;SDS011;33304;52.456;13.328;2023-08-24T07:41:36;0.40;;;0.40;;
47575;SDS011;33304;52.456;13.328;2023-08-24T07:44:03;0.50;;;0.50;;
47575;SDS011;33304;52.456;13.328;2023-08-24T07:46:30;0.57;;;0.57;;
47575;SDS011;33304;52.456;13.328;2023-08-24T07:48:58;0.60;;;0.60;;
47575;SDS011;33304;52.456;13.328;2023-08-24T07:51:25;0.60;;;0.60;;
47575;SDS011;33304;52.456;13.328;2023-08-24T07:53:52;0.50;;;0.50;;
47575;SDS011;33304;52.456;13.328;2023-08-24T07:56:20;0.50;;;0.50;;
47575;SDS011;33304;52.456;13.328;2023-08-24T07:58:49;0.65;;;0.65;;
47575;SDS011;33304;52.456;13.328;2023-08-24T08:01:16;0.57;;;0.57;;
47575;SDS011;33304;52.456;13.328;2023-08-24T08:03:43;0.70;;;0.70;;
47575;SDS011;33304;52.456;13.328;2023-08-24T08:06:11;0.50;;;0.50;;
47575;SDS011;33304;52.456;13.328;2023-08-24T08:08:39;0.57;;;0.57;;
47575;SDS011;33304;52.456;13.328;2023-08-24T08:11:06;0.55;;;0.55;;
47575;SDS011;33304;52.456;13.328;2023-08-24T08:13:33;0.52;;;0.52;;
47575;SDS011;33304;52.456;13.328;2023-08-24T08:16:02;0.52;;;0.52;;
47575;SDS011;33304;52.456;13.328;2023-08-24T08:18:29;0.70;;;0.70;;
47575;SDS011;33304;52.456;13.328;2023-08-24T08:20:57;0.65;;;0.65;;
47575;SDS011;33304;52.456;13.328;2023-08-24T08:23:24;0.73;;;0.73;;
47575;SDS011;33304;52.456;13.328;2023-08-24T08:25:52;0.60;;;0.60;;
47575;SDS011;33304;52.456;13.328;2023-08-24T08:28:19;0.43;;;0.43;;
47575;SDS011;33304;52.456;13.328;2023-08-24T08:30:47;0.47;;;0.47;;
47575;SDS011;33304;52.456;13.328;2023-08-24T08:33:16;0.85;;;0.85;;
47575;SDS011;33304;52.456;13.328;2023-08-24T08:35:45;0.60;;;0.60;;
47575;SDS011;33304;52.456;13.328;2023-08-24T08:38:12;0.60;;;0.60;;
47575;SDS011;33304;52.456;13.328;2023-08-24T08:40:39;0.70;;;0.70;;
47575;SDS011;33304;52.456;13.328;2023-08-24T08:43:07;0.60;;;0.60;;
47575;SDS011;33304;52.456;13.328;2023-08-24T08:45:34;0.70;;;0.70;;
47575;SDS011;33304;52.456;13.328;2023-08-24T08:48:01;0.60;;;0.60;;
47575;SDS011;33304;52.456;13.328;2023-08-24T08:50:32;0.60;;;0.60;;
47575;SDS011;33304;52.456;13.328;2023-08-24T08:53:01;0.70;;;0.70;;
47575;SDS011;33304;52.456;13.328;2023-08-24T08:55:28;0.60;;;0.60;;
47575;SDS011;33304;52.456;13.328;2023-08-24T08:57:58;0.60;;;0.60;;
47575;SDS011;33304;52.456;13.328;2023-08-24T09:00:26;0.77;;;0.77;;
47575;SDS011;33304;52.456;13.328;2023-08-24T09:02:54;0.65;;;0.65;;
47575;SDS011;33304;52.456;13.328;2023-08-24T09:05:24;0.80;;;0.80;;
47575;SDS011;33304;52.456;13.328;2023-08-24T09:07:54;0.90;;;0.90;;
47575;SDS011;33304;52.456;13.328;2023-08-24T09:10:23;0.70;;;0.70;;
47575;SDS011;33304;52.456;13.328;2023-08-24T09:12:50;0.70;;;0.70;;
47575;SDS011;33304;52.456;13.328;2023-08-24T09:15:23;0.85;;;0.85;;
47575;SDS011;33304;52.456;13.328;2023-08-24T09:17:52;0.70;;;0.70;;
47575;SDS011;33304;52.456;13.328;2023-08-24T09:20:21;0.80;;;0.80;;
47575;SDS011;33304;52.456;13.328;2023-08-24T09:22:48;1.10;;;1.10;;
47575;SDS011;33304;52.456;13.328;2023-08-24T09:25:21;1.10;;;1.10;;
47575;SDS011;33304;52.456;13.328;2023-08-24T09:27:55;0.93;;;0.93;;
47575;SDS011;33304;52.456;13.328;2023-08-24T09:30:23;1.10;;;1.10;;
47575;SDS011;33304;52.456;13.328;2023-08-24T09:32:54;1.10;;;1.10;;
47575;SDS011;33304;52.456;13.328;2023-08-24T09:35:21;1.60;;;1.50;;
47575;SDS011;33304;52.456;13.328;2023-08-24T09:37:49;1.10;;;1.10;;
47575;SDS011;33304;52.456;13.328;2023-08-24T09:40:16;1.20;;;1.20;;
47575;SDS011;33304;52.456;13.328;2023-08-24T09:42:52;1.10;;;1.10;;
47575;SDS011;33304;52.456;13.328;2023-08-24T09:45:19;1.33;;;1.33;;
47575;SDS011;33304;52.456;13.328;2023-08-24T09:47:49;0.95;;;0.95;;
47575;SDS011;33304;52.456;13.328;2023-08-24T09:50:17;1.10;;;1.10;;
47575;SDS011;33304;52.456;13.328;2023-08-24T09:52:45;1.10;;;1.10;;
47575;SDS011;33304;52.456;13.328;2023-08-24T09:55:15;1.00;;;1.00;;
47575;SDS011;33304;52.456;13.328;2023-08-24T09:57:49;1.20;;;1.20;;
47575;SDS011;33304;52.456;13.328;2023-08-24T10:00:20;1.33;;;1.33;;
47575;SDS011;33304;52.456;13.328;2023-08-24T10:02:50;0.88;;;0.88;;
47575;SDS011;33304;52.456;13.328;2023-08-24T10:05:19;1.10;;;1.10;;
47575;SDS011;33304;52.456;13.328;2023-08-24T10:07:49;0.70;;;0.70;;
47575;SDS011;33304;52.456;13.328;2023-08-24T10:10:19;0.60;;;0.60;;
47575;SDS011;33304;52.456;13.328;2023-08-24T10:12:51;0.80;;;0.80;;
47575;SDS011;33304;52.456;13.328;2023-08-24T10:15:22;0.80;;;0.80;;
47575;SDS011;33304;52.456;13.328;2023-08-24T10:17:50;0.77;;;0.77;;
47575;SDS011;33304;52.456;13.328;2023-08-24T10:20:19;0.80;;;0.80;;
47575;SDS011;33304;52.456;13.328;2023-08-24T10:22:46;0.80;;;0.80;;
47575;SDS011;33304;52.456;13.328;2023-08-24T10:25:14;0.90;;;0.90;;
47575;SDS011;33304;52.456;13.328;2023-08-24T10:27:43;0.80;;;0.80;;
47575;SDS011;33304;52.456;13.328;2023-08-24T10:30:14;0.73;;;0.73;;
47575;SDS011;33304;52.456;13.328;2023-08-24T10:32:43;0.75;;;0.75;;
47575;SDS011;33304;52.456;13.328;2023-08-24T10:35:13;0.80;;;0.80;;
47575;SDS011;33304;52.456;13.328;2023-08-24T10:37:41;0.98;;;0.98;;
47575;SDS011;33304;52.456;13.328;2023-08-24T10:40:11;0.88;;;0.88;;
47575;SDS011;33304;52.456;13.328;2023-08-24T10:42:46;0.80;;;0.80;;
47575;SDS011;33304;52.456;13.328;2023-08-24T10:45:15;0.80;;;0.80;;
47575;SDS011;33304;52.456;13.328;2023-08-24T10:47:51;0.70;;;0.70;;
47575;SDS011;33304;52.456;13.328;2023-08-24T10:50:19;0.70;;;0.70;;
47575;SDS011;33304;52.456;13.328;2023-08-24T10:52:48;0.90;;;0.90;;
47575;SDS011;33304;52.456;13.328;2023-08-24T10:55:22;0.70;;;0.70;;
47575;SDS011;33304;52.456;13.328;2023-08-24T10:57:56;0.73;;;0.73;;
47575;SDS011;33304;52.456;13.328;2023-08-24T11:00:26;0.70;;;0.70;;
47575;SDS011;33304;52.456;13.328;2023-08-24T11:02:55;0.90;;;0.90;;
47575;SDS011;33304;52.456;13.328;2023-08-24T11:05:23;1.10;;;1.10;;
47575;SDS011;33304;52.456;13.328;2023-08-24T11:07:54;1.10;;;1.10;;
47575;SDS011;33304;52.456;13.328;2023-08-24T11:10:22;1.10;;;1.10;;
47575;SDS011;33304;52.456;13.328;2023-08-24T11:13:10;0.93;;;0.93;;
47575;SDS011;33304;52.456;13.328;2023-08-24T11:15:40;0.93;;;0.93;;
47575;SDS011;33304;52.456;13.328;2023-08-24T11:18:12;1.10;;;1.10;;
47575;SDS011;33304;52.456;13.328;2023-08-24T11:20:51;0.80;;;0.80;;
47575;SDS011;33304;52.456;13.328;2023-08-24T11:23:20;0.90;;;0.90;;
47575;SDS011;33304;52.456;13.328;2023-08-24T11:25:48;0.80;;;0.80;;
47575;SDS011;33304;52.456;13.328;2023-08-24T11:28:20;0.82;;;0.82;;
47575;SDS011;33304;52.456;13.328;2023-08-24T11:30:49;0.75;;;0.75;;
47575;SDS011;33304;52.456;13.328;2023-08-24T11:33:18;0.80;;;0.80;;
47575;SDS011;33304;52.456;13.328;2023-08-24T11:35:54;1.00;;;1.00;;
47575;SDS011;33304;52.456;13.328;2023-08-24T11:38:22;1.00;;;1.00;;
47575;SDS011;33304;52.456;13.328;2023-08-24T11:40:49;1.17;;;1.17;;
47575;SDS011;33304;52.456;13.328;2023-08-24T11:43:20;0.90;;;0.90;;
47575;SDS011;33304;52.456;13.328;2023-08-24T11:45:52;0.88;;;0.88;;
47575;SDS011;33304;52.456;13.328;2023-08-24T11:48:23;1.08;;;1.08;;
47575;SDS011;33304;52.456;13.328;2023-08-24T11:50:51;0.70;;;0.70;;
47575;SDS011;33304;52.456;13.328;2023-08-24T11:53:19;0.85;;;0.85;;
47575;SDS011;33304;52.456;13.328;2023-08-24T11:55:47;0.70;;;0.70;;
47575;SDS011;33304;52.456;13.328;2023-08-24T11:58:14;0.90;;;0.90;;
47575;SDS011;33304;52.456;13.328;2023-08-24T12:00:42;0.90;;;0.90;;
47575;SDS011;33304;52.456;13.328;2023-08-24T12:03:10;0.80;;;0.80;;
47575;SDS011;33304;52.456;13.328;2023-08-24T12:05:38;0.85;;;0.85;;
47575;SDS011;33304;52.456;13.328;2023-08-24T12:08:06;0.80;;;0.80;;
47575;SDS011;33304;52.456;13.328;2023-08-24T12:10:33;0.90;;;0.90;;
47575;SDS011;33304;52.456;13.328;2023-08-24T12:13:02;0.90;;;0.90;;
47575;SDS011;33304;52.456;13.328;2023-08-24T12:15:31;1.00;;;1.00;;
47575;SDS011;33304;52.456;13.328;2023-08-24T12:18:08;1.10;;;1.10;;
47575;SDS011;33304;52.456;13.328;2023-08-24T12:20:37;0.90;;;0.90;;
47575;SDS011;33304;52.456;13.328;2023-08-24T12:23:05;0.90;;;0.90;;
47575;SDS011;33304;52.456;13.328;2023-08-24T12:25:35;0.75;;;0.75;;
47575;SDS011;33304;52.456;13.328;2023-08-24T12:28:09;0.80;;;0.80;;
47575;SDS011;33304;52.456;13.328;2023-08-24T12:30:44;0.70;;;0.70;;
47575;SDS011;33304;52.456;13.328;2023-08-24T12:33:23;0.80;;;0.80;;
47575;SDS011;33304;52.456;13.328;2023-08-24T12:35:51;0.70;;;0.70;;
47575;SDS011;33304;52.456;13.328;2023-08-24T12:38:19;0.80;;;0.80;;
47575;SDS011;33304;52.456;13.328;2023-08-24T12:40:46;0.80;;;0.80;;
47575;SDS011;33304;52.456;13.328;2023-08-24T12:43:13;0.60;;;0.60;;
47575;SDS011;33304;52.456;13.328;2023-08-24T12:45:40;0.70;;;0.70;;
47575;SDS011;33304;52.456;13.328;2023-08-24T12:48:08;0.70;;;0.70;;
47575;SDS011;33304;52.456;13.328;2023-08-24T12:50:36;0.90;;;0.90;;
47575;SDS011;33304;52.456;13.328;2023-08-24T12:53:04;0.90;;;0.90;;
47575;SDS011;33304;52.456;13.328;2023-08-24T12:55:32;1.00;;;1.00;;
47575;SDS011;33304;52.456;13.328;2023-08-24T12:57:59;1.35;;;1.35;;
47575;SDS011;33304;52.456;13.328;2023-08-24T13:00:26;1.20;;;1.20;;
47575;SDS011;33304;52.456;13.328;2023-08-24T13:02:53;1.58;;;1.58;;
47575;SDS011;33304;52.456;13.328;2023-08-24T13:05:20;1.38;;;1.38;;
47575;SDS011;33304;52.456;13.328;2023-08-24T13:07:49;1.50;;;1.50;;
47575;SDS011;33304;52.456;13.328;2023-08-24T13:10:16;1.52;;;1.52;;
47575;SDS011;33304;52.456;13.328;2023-08-24T13:12:44;1.60;;;1.60;;
47575;SDS011;33304;52.456;13.328;2023-08-24T13:15:11;2.10;;;2.00;;
47575;SDS011;33304;52.456;13.328;2023-08-24T13:17:38;1.30;;;1.30;;
47575;SDS011;33304;52.456;13.328;2023-08-24T13:20:05;1.60;;;1.60;;
47575;SDS011;33304;52.456;13.328;2023-08-24T13:22:34;1.58;;;1.58;;
47575;SDS011;33304;52.456;13.328;2023-08-24T13:25:02;1.33;;;1.33;;
47575;SDS011;33304;52.456;13.328;2023-08-24T13:27:30;1.23;;;1.23;;
47575;SDS011;33304;52.456;13.328;2023-08-24T13:29:59;1.10;;;1.10;;
47575;SDS011;33304;52.456;13.328;2023-08-24T13:32:26;1.30;;;1.30;;
47575;SDS011;33304;52.456;13.328;2023-08-24T13:34:53;1.40;;;1.40;;
47575;SDS011;33304;52.456;13.328;2023-08-24T13:37:21;1.30;;;1.30;;
47575;SDS011;33304;52.456;13.328;2023-08-24T13:39:49;1.42;;;1.42;;
47575;SDS011;33304;52.456;13.328;2023-08-24T13:42:17;1.20;;;1.20;;
47575;SDS011;33304;52.456;13.328;2023-08-24T13:44:44;1.20;;;1.20;;
47575;SDS011;33304;52.456;13.328;2023-08-24T13:47:12;1.67;;;1.67;;
47575;SDS011;33304;52.456;13.328;2023-08-24T13:49:39;3.10;;;3.00;;
47575;SDS011;33304;52.456;13.328;2023-08-24T13:52:06;2.78;;;2.67;;
47575;SDS011;33304;52.456;13.328;2023-08-24T13:54:33;2.08;;;1.98;;
47575;SDS011;33304;52.456;13.328;2023-08-24T13:57:00;2.45;;;2.35;;
47575;SDS011;33304;52.456;13.328;2023-08-24T13:59:29;6.05;;;5.85;;
47575;SDS011;33304;52.456;13.328;2023-08-24T14:01:56;8.55;;;8.25;;
47575;SDS011;33304;52.456;13.328;2023-08-24T14:04:23;13.77;;;13.27;;
47575;SDS011;33304;52.456;13.328;2023-08-24T14:06:50;15.93;;;15.32;;
47575;SDS011;33304;52.456;13.328;2023-08-24T14:09:17;6.75;;;6.53;;
47575;SDS011;33304;52.456;13.328;2023-08-24T14:11:44;3.55;;;3.45;;
47575;SDS011;33304;52.456;13.328;2023-08-24T14:14:13;6.18;;;5.97;;
47575;SDS011;33304;52.456;13.328;2023-08-24T14:16:41;7.60;;;7.30;;
47575;SDS011;33304;52.456;13.328;2023-08-24T14:19:08;7.30;;;7.00;;
47575;SDS011;33304;52.456;13.328;2023-08-24T14:21:35;8.82;;;8.52;;
47575;SDS011;33304;52.456;13.328;2023-08-24T14:24:02;10.98;;;10.57;;
47575;SDS011;33304;52.456;13.328;2023-08-24T14:26:30;9.20;;;8.88;;
47575;SDS011;33304;52.456;13.328;2023-08-24T14:28:57;6.43;;;6.22;;
47575;SDS011;33304;52.456;13.328;2023-08-24T14:31:25;6.97;;;6.68;;
47575;SDS011;33304;52.456;13.328;2023-08-24T14:33:55;7.90;;;7.60;;
47575;SDS011;33304;52.456;13.328;2023-08-24T14:36:22;10.35;;;9.95;;
47575;SDS011;33304;52.456;13.328;2023-08-24T14:38:50;11.43;;;11.02;;
47575;SDS011;33304;52.456;13.328;2023-08-24T14:41:18;9.65;;;9.25;;
47575;SDS011;33304;52.456;13.328;2023-08-24T14:43:45;6.93;;;6.63;;
47575;SDS011;33304;52.456;13.328;2023-08-24T14:46:12;6.10;;;5.90;;